sensor_id;sensor_type;location;lat;lon;timestamp;pressure;altitude;pressure_sealevel;temperature;humidity
59329;BME280;45100;46.926;7.452;2023-09-19T00:01:47;95288.55;;;15.61;91.22
59329;BME280;45100;46.926;7.452;2023-09-19T00:04:15;95290.81;;;15.61;90.85
59329;BME280;45100;46.926;7.452;2023-09-19T00:06:46;95296.04;;;15.62;90.52
59329;BME280;45100;46.926;7.452;2023-09-19T00:09:15;95301.10;;;15.63;90.67
59329;BME280;45100;46.926;7.452;2023-09-19T00:11:50;95293.89;;;15.65;91.49
59329;BME280;45100;46.926;7.452;2023-09-19T00:14:17;95291.42;;;15.67;91.62
59329;BME280;45100;46.926;7.452;2023-09-19T00:16:48;95291.08;;;15.66;92.12
59329;BME280;45100;46.926;7.452;2023-09-19T00:19:18;95297.41;;;15.63;92.45
59329;BME280;45100;46.926;7.452;2023-09-19T00:21:49;95300.66;;;15.61;92.57
59329;BME280;45100;46.926;7.452;2023-09-19T00:24:19;95300.09;;;15.61;92.29
59329;BME280;45100;46.926;7.452;2023-09-19T00:26:49;95311.42;;;15.63;91.77
59329;BME280;45100;46.926;7.452;2023-09-19T00:29:20;95310.67;;;15.64;91.41
59329;BME280;45100;46.926;7.452;2023-09-19T00:31:50;95311.48;;;15.63;91.83
59329;BME280;45100;46.926;7.452;2023-09-19T00:34:21;95307.92;;;15.62;92.23
59329;BME280;45100;46.926;7.452;2023-09-19T00:36:53;95306.33;;;15.59;92.35
59329;BME280;45100;46.926;7.452;2023-09-19T00:41:55;95305.35;;;15.57;93.42
59329;BME280;45100;46.926;7.452;2023-09-19T00:44:25;95312.50;;;15.57;93.35
59329;BME280;45100;46.926;7.452;2023-09-19T00:46:56;95314.61;;;15.56;93.66
59329;BME280;45100;46.926;7.452;2023-09-19T00:49:29;95312.86;;;15.55;93.70
59329;BME280;45100;46.926;7.452;2023-09-19T00:54:31;95307.33;;;15.55;93.77
59329;BME280;45100;46.926;7.452;2023-09-19T00:57:01;95313.22;;;15.53;94.08
59329;BME280;45100;46.926;7.452;2023-09-19T00:59:32;95311.05;;;15.51;92.75
59329;BME280;45100;46.926;7.452;2023-09-19T01:02:03;95308.59;;;15.50;93.31
59329;BME280;45100;46.926;7.452;2023-09-19T01:04:33;95309.34;;;15.50;93.61
59329;BME280;45100;46.926;7.452;2023-09-19T01:09:38;95309.20;;;15.45;92.83
59329;BME280;45100;46.926;7.452;2023-09-19T01:12:14;95307.78;;;15.44;92.49
59329;BME280;45100;46.926;7.452;2023-09-19T01:14:47;95307.67;;;15.43;92.31
59329;BME280;45100;46.926;7.452;2023-09-19T01:20:03;95307.88;;;15.43;92.20
59329;BME280;45100;46.926;7.452;2023-09-19T01:22:24;95309.62;;;15.44;91.96
59329;BME280;45100;46.926;7.452;2023-09-19T01:24:54;95307.02;;;15.44;92.10
59329;BME280;45100;46.926;7.452;2023-09-19T01:27:28;95316.62;;;15.43;92.59
59329;BME280;45100;46.926;7.452;2023-09-19T01:29:49;95320.94;;;15.41;91.90
59329;BME280;45100;46.926;7.452;2023-09-19T01:32:19;95310.84;;;15.41;90.90
59329;BME280;45100;46.926;7.452;2023-09-19T01:34:48;95303.09;;;15.41;91.29
59329;BME280;45100;46.926;7.452;2023-09-19T01:37:14;95303.82;;;15.43;91.30
59329;BME280;45100;46.926;7.452;2023-09-19T01:39:44;95309.02;;;15.43;90.44
59329;BME280;45100;46.926;7.452;2023-09-19T01:50:02;95313.20;;;15.50;89.97
59329;BME280;45100;46.926;7.452;2023-09-19T01:52:21;95308.64;;;15.50;91.12
59329;BME280;45100;46.926;7.452;2023-09-19T01:57:35;95309.04;;;15.46;90.88
59329;BME280;45100;46.926;7.452;2023-09-19T02:00:04;95311.16;;;15.46;90.09
59329;BME280;45100;46.926;7.452;2023-09-19T02:02:29;95307.64;;;15.47;89.70
59329;BME280;45100;46.926;7.452;2023-09-19T02:04:58;95303.58;;;15.49;90.15
59329;BME280;45100;46.926;7.452;2023-09-19T02:07:32;95307.66;;;15.49;90.13
59329;BME280;45100;46.926;7.452;2023-09-19T02:10:06;95306.53;;;15.50;87.97
59329;BME280;45100;46.926;7.452;2023-09-19T02:12:32;95315.55;;;15.52;88.51
59329;BME280;45100;46.926;7.452;2023-09-19T02:15:01;95320.09;;;15.56;88.89
59329;BME280;45100;46.926;7.452;2023-09-19T02:17:31;95317.72;;;15.57;89.26
59329;BME280;45100;46.926;7.452;2023-09-19T02:20:03;95322.38;;;15.57;89.17
59329;BME280;45100;46.926;7.452;2023-09-19T02:22:32;95320.25;;;15.56;88.41
59329;BME280;45100;46.926;7.452;2023-09-19T02:25:06;95325.09;;;15.56;89.67
59329;BME280;45100;46.926;7.452;2023-09-19T02:27:32;95323.02;;;15.54;90.22
59329;BME280;45100;46.926;7.452;2023-09-19T02:30:04;95319.36;;;15.51;90.83
59329;BME280;45100;46.926;7.452;2023-09-19T02:32:39;95328.84;;;15.49;91.47
59329;BME280;45100;46.926;7.452;2023-09-19T02:35:06;95330.30;;;15.44;92.25
59329;BME280;45100;46.926;7.452;2023-09-19T02:40:22;95325.09;;;15.37;94.02
59329;BME280;45100;46.926;7.452;2023-09-19T02:42:42;95330.89;;;15.31;94.61
59329;BME280;45100;46.926;7.452;2023-09-19T02:45:10;95326.24;;;15.28;95.25
59329;BME280;45100;46.926;7.452;2023-09-19T02:47:40;95328.55;;;15.26;95.57
59329;BME280;45100;46.926;7.452;2023-09-19T02:50:14;95328.20;;;15.23;95.97
59329;BME280;45100;46.926;7.452;2023-09-19T02:52:42;95325.66;;;15.19;96.32
59329;BME280;45100;46.926;7.452;2023-09-19T02:55:12;95326.34;;;15.17;96.57
59329;BME280;45100;46.926;7.452;2023-09-19T03:02:54;95320.36;;;15.13;97.44
59329;BME280;45100;46.926;7.452;2023-09-19T03:05:27;95323.63;;;15.11;97.62
59329;BME280;45100;46.926;7.452;2023-09-19T03:07:56;95327.69;;;15.10;97.81
59329;BME280;45100;46.926;7.452;2023-09-19T03:10:25;95327.27;;;15.10;98.04
59329;BME280;45100;46.926;7.452;2023-09-19T03:12:55;95328.02;;;15.10;98.34
59329;BME280;45100;46.926;7.452;2023-09-19T03:15:25;95333.13;;;15.10;98.42
59329;BME280;45100;46.926;7.452;2023-09-19T03:17:55;95333.95;;;15.10;98.50
59329;BME280;45100;46.926;7.452;2023-09-19T03:23:01;95333.05;;;15.07;98.18
59329;BME280;45100;46.926;7.452;2023-09-19T03:28:06;95333.92;;;15.04;98.36
59329;BME280;45100;46.926;7.452;2023-09-19T03:30:34;95339.23;;;15.04;98.74
59329;BME280;45100;46.926;7.452;2023-09-19T03:33:05;95338.33;;;15.04;99.25
59329;BME280;45100;46.926;7.452;2023-09-19T03:35:33;95335.44;;;15.03;99.46
59329;BME280;45100;46.926;7.452;2023-09-19T03:38:04;95338.18;;;15.02;99.43
59329;BME280;45100;46.926;7.452;2023-09-19T03:40:34;95337.10;;;14.98;99.46
59329;BME280;45100;46.926;7.452;2023-09-19T03:43:04;95337.47;;;14.96;99.63
59329;BME280;45100;46.926;7.452;2023-09-19T03:45:35;95342.34;;;14.95;99.88
59329;BME280;45100;46.926;7.452;2023-09-19T03:48:09;95344.52;;;14.94;100.00
59329;BME280;45100;46.926;7.452;2023-09-19T03:50:37;95344.05;;;14.93;100.00
59329;BME280;45100;46.926;7.452;2023-09-19T03:53:08;95345.52;;;14.92;100.00
59329;BME280;45100;46.926;7.452;2023-09-19T03:55:39;95348.53;;;14.92;100.00
59329;BME280;45100;46.926;7.452;2023-09-19T03:58:08;95350.48;;;14.92;100.00
59329;BME280;45100;46.926;7.452;2023-09-19T04:00:39;95351.31;;;14.91;100.00
59329;BME280;45100;46.926;7.452;2023-09-19T04:03:16;95355.27;;;14.91;100.00
59329;BME280;45100;46.926;7.452;2023-09-19T04:05:40;95351.08;;;14.90;100.00
59329;BME280;45100;46.926;7.452;2023-09-19T04:08:11;95351.92;;;14.89;100.00
59329;BME280;45100;46.926;7.452;2023-09-19T04:10:42;95354.21;;;14.88;100.00
59329;BME280;45100;46.926;7.452;2023-09-19T04:13:12;95353.55;;;14.88;100.00
59329;BME280;45100;46.926;7.452;2023-09-19T04:15:43;95351.55;;;14.88;100.00
59329;BME280;45100;46.926;7.452;2023-09-19T04:18:14;95347.42;;;14.89;100.00
59329;BME280;45100;46.926;7.452;2023-09-19T04:20:50;95342.83;;;14.90;100.00
59329;BME280;45100;46.926;7.452;2023-09-19T04:23:14;95339.95;;;14.90;100.00
59329;BME280;45100;46.926;7.452;2023-09-19T04:25:45;95340.72;;;14.91;100.00
59329;BME280;45100;46.926;7.452;2023-09-19T04:28:16;95337.47;;;14.91;100.00
59329;BME280;45100;46.926;7.452;2023-09-19T04:30:46;95334.77;;;14.91;100.00
59329;BME280;45100;46.926;7.452;2023-09-19T04:33:17;95333.69;;;14.92;100.00
59329;BME280;45100;46.926;7.452;2023-09-19T04:35:49;95337.12;;;14.93;100.00
59329;BME280;45100;46.926;7.452;2023-09-19T04:38:18;95335.94;;;14.94;100.00
59329;BME280;45100;46.926;7.452;2023-09-19T04:40:48;95337.34;;;14.93;100.00
59329;BME280;45100;46.926;7.452;2023-09-19T04:43:19;95342.62;;;14.94;100.00
59329;BME280;45100;46.926;7.452;2023-09-19T04:45:49;95344.34;;;14.94;100.00
59329;BME280;45100;46.926;7.452;2023-09-19T04:48:21;95344.41;;;14.96;100.00
59329;BME280;45100;46.926;7.452;2023-09-19T04:50:52;95342.30;;;14.96;100.00
59329;BME280;45100;46.926;7.452;2023-09-19T04:53:22;95350.50;;;14.97;100.00
59329;BME280;45100;46.926;7.452;2023-09-19T04:55:53;95351.24;;;14.96;100.00
59329;BME280;45100;46.926;7.452;2023-09-19T04:58:22;95361.95;;;14.93;100.00
59329;BME280;45100;46.926;7.452;2023-09-19T05:00:53;95367.55;;;14.90;100.00
59329;BME280;45100;46.926;7.452;2023-09-19T05:03:24;95372.99;;;14.87;100.00
59329;BME280;45100;46.926;7.452;2023-09-19T05:05:54;95370.33;;;14.85;100.00
59329;BME280;45100;46.926;7.452;2023-09-19T05:08:26;95377.05;;;14.85;100.00
59329;BME280;45100;46.926;7.452;2023-09-19T05:10:56;95379.67;;;14.83;100.00
59329;BME280;45100;46.926;7.452;2023-09-19T05:13:28;95382.60;;;14.83;100.00
59329;BME280;45100;46.926;7.452;2023-09-19T05:15:59;95381.11;;;14.85;100.00
59329;BME280;45100;46.926;7.452;2023-09-19T05:18:27;95381.55;;;14.85;100.00
59329;BME280;45100;46.926;7.452;2023-09-19T05:20:58;95382.37;;;14.86;100.00
59329;BME280;45100;46.926;7.452;2023-09-19T05:23:29;95387.38;;;14.88;100.00
59329;BME280;45100;46.926;7.452;2023-09-19T05:26:00;95382.06;;;14.87;100.00
59329;BME280;45100;46.926;7.452;2023-09-19T05:28:30;95383.91;;;14.87;100.00
59329;BME280;45100;46.926;7.452;2023-09-19T05:31:00;95390.53;;;14.88;100.00
59329;BME280;45100;46.926;7.452;2023-09-19T05:33:33;95385.66;;;14.89;100.00
59329;BME280;45100;46.926;7.452;2023-09-19T05:36:00;95390.76;;;14.89;100.00
59329;BME280;45100;46.926;7.452;2023-09-19T05:38:33;95387.13;;;14.90;100.00
59329;BME280;45100;46.926;7.452;2023-09-19T05:41:03;95385.47;;;14.91;100.00
59329;BME280;45100;46.926;7.452;2023-09-19T05:43:33;95392.05;;;14.92;100.00
59329;BME280;45100;46.926;7.452;2023-09-19T05:46:03;95397.17;;;14.92;100.00
59329;BME280;45100;46.926;7.452;2023-09-19T05:48:33;95403.36;;;14.92;100.00
59329;BME280;45100;46.926;7.452;2023-09-19T05:53:38;95402.44;;;14.92;100.00
59329;BME280;45100;46.926;7.452;2023-09-19T05:56:07;95408.80;;;14.93;100.00
59329;BME280;45100;46.926;7.452;2023-09-19T05:58:37;95406.38;;;14.94;100.00
59329;BME280;45100;46.926;7.452;2023-09-19T06:01:08;95413.48;;;14.93;100.00
59329;BME280;45100;46.926;7.452;2023-09-19T06:03:38;95417.03;;;14.95;100.00
59329;BME280;45100;46.926;7.452;2023-09-19T06:06:09;95424.67;;;14.96;100.00
59329;BME280;45100;46.926;7.452;2023-09-19T06:08:38;95424.06;;;14.97;100.00
59329;BME280;45100;46.926;7.452;2023-09-19T06:11:10;95424.91;;;15.02;100.00
59329;BME280;45100;46.926;7.452;2023-09-19T06:13:41;95430.06;;;15.05;100.00
59329;BME280;45100;46.926;7.452;2023-09-19T06:16:11;95430.52;;;15.08;100.00
59329;BME280;45100;46.926;7.452;2023-09-19T06:18:41;95433.56;;;15.08;100.00
59329;BME280;45100;46.926;7.452;2023-09-19T06:21:13;95434.01;;;15.10;100.00
59329;BME280;45100;46.926;7.452;2023-09-19T06:23:43;95437.97;;;15.12;100.00
59329;BME280;45100;46.926;7.452;2023-09-19T06:26:14;95440.05;;;15.16;100.00
59329;BME280;45100;46.926;7.452;2023-09-19T06:28:45;95439.72;;;15.20;100.00
59329;BME280;45100;46.926;7.452;2023-09-19T06:31:15;95437.44;;;15.24;100.00
59329;BME280;45100;46.926;7.452;2023-09-19T06:33:45;95437.04;;;15.28;100.00
59329;BME280;45100;46.926;7.452;2023-09-19T06:36:15;95437.95;;;15.31;100.00
59329;BME280;45100;46.926;7.452;2023-09-19T06:38:46;95435.81;;;15.33;100.00
59329;BME280;45100;46.926;7.452;2023-09-19T06:41:18;95436.36;;;15.35;100.00
59329;BME280;45100;46.926;7.452;2023-09-19T06:43:46;95435.30;;;15.37;100.00
59329;BME280;45100;46.926;7.452;2023-09-19T06:46:17;95435.72;;;15.41;100.00
59329;BME280;45100;46.926;7.452;2023-09-19T06:48:48;95444.41;;;15.46;100.00
59329;BME280;45100;46.926;7.452;2023-09-19T06:51:18;95441.56;;;15.50;100.00
59329;BME280;45100;46.926;7.452;2023-09-19T06:53:48;95443.02;;;15.52;100.00
59329;BME280;45100;46.926;7.452;2023-09-19T06:56:18;95436.85;;;15.54;100.00
59329;BME280;45100;46.926;7.452;2023-09-19T06:58:48;95435.52;;;15.61;100.00
59329;BME280;45100;46.926;7.452;2023-09-19T07:01:19;95440.38;;;15.68;100.00
59329;BME280;45100;46.926;7.452;2023-09-19T07:03:49;95439.16;;;15.76;100.00
59329;BME280;45100;46.926;7.452;2023-09-19T07:06:20;95444.02;;;15.80;100.00
59329;BME280;45100;46.926;7.452;2023-09-19T07:08:51;95440.47;;;15.84;100.00
59329;BME280;45100;46.926;7.452;2023-09-19T07:11:23;95443.34;;;15.87;99.43
59329;BME280;45100;46.926;7.452;2023-09-19T07:13:51;95444.01;;;15.91;98.90
59329;BME280;45100;46.926;7.452;2023-09-19T07:18:57;95453.02;;;16.02;98.22
59329;BME280;45100;46.926;7.452;2023-09-19T07:21:25;95453.92;;;16.07;97.88
59329;BME280;45100;46.926;7.452;2023-09-19T07:23:54;95455.71;;;16.05;97.75
59329;BME280;45100;46.926;7.452;2023-09-19T07:26:27;95454.73;;;15.99;97.29
59329;BME280;45100;46.926;7.452;2023-09-19T07:31:30;95460.34;;;16.01;96.98
59329;BME280;45100;46.926;7.452;2023-09-19T07:33:58;95461.50;;;16.10;97.44
59329;BME280;45100;46.926;7.452;2023-09-19T07:36:40;95465.62;;;16.22;97.54
59329;BME280;45100;46.926;7.452;2023-09-19T07:39:00;95472.60;;;16.31;96.33
59329;BME280;45100;46.926;7.452;2023-09-19T07:41:33;95474.72;;;16.29;94.66
59329;BME280;45100;46.926;7.452;2023-09-19T07:44:01;95475.48;;;16.25;94.70
59329;BME280;45100;46.926;7.452;2023-09-19T07:46:31;95480.74;;;16.21;95.22
59329;BME280;45100;46.926;7.452;2023-09-19T07:49:01;95481.67;;;16.17;95.63
59329;BME280;45100;46.926;7.452;2023-09-19T07:51:33;95487.84;;;16.14;96.23
59329;BME280;45100;46.926;7.452;2023-09-19T07:54:02;95487.69;;;16.15;96.80
59329;BME280;45100;46.926;7.452;2023-09-19T07:56:34;95487.41;;;16.14;96.77
59329;BME280;45100;46.926;7.452;2023-09-19T07:59:03;95493.38;;;16.14;96.75
59329;BME280;45100;46.926;7.452;2023-09-19T08:01:36;95495.14;;;16.15;96.45
59329;BME280;45100;46.926;7.452;2023-09-19T08:04:04;95490.69;;;16.16;96.28
59329;BME280;45100;46.926;7.452;2023-09-19T08:06:35;95490.33;;;16.20;96.54
59329;BME280;45100;46.926;7.452;2023-09-19T08:09:12;95486.33;;;16.27;96.66
59329;BME280;45100;46.926;7.452;2023-09-19T08:14:10;95491.88;;;16.55;97.20
59329;BME280;45100;46.926;7.452;2023-09-19T08:16:40;95490.27;;;16.66;96.63
59329;BME280;45100;46.926;7.452;2023-09-19T08:19:11;95490.16;;;16.78;96.66
59329;BME280;45100;46.926;7.452;2023-09-19T08:21:41;95486.55;;;16.93;96.78
59329;BME280;45100;46.926;7.452;2023-09-19T08:24:12;95490.45;;;17.09;95.96
59329;BME280;45100;46.926;7.452;2023-09-19T08:29:15;95477.34;;;17.36;92.74
59329;BME280;45100;46.926;7.452;2023-09-19T08:31:45;95479.70;;;17.43;90.48
59329;BME280;45100;46.926;7.452;2023-09-19T08:34:16;95482.29;;;17.48;89.61
59329;BME280;45100;46.926;7.452;2023-09-19T08:36:50;95480.99;;;17.53;88.81
59329;BME280;45100;46.926;7.452;2023-09-19T08:39:19;95486.95;;;17.59;89.82
59329;BME280;45100;46.926;7.452;2023-09-19T08:41:48;95491.33;;;17.66;88.91
59329;BME280;45100;46.926;7.452;2023-09-19T08:47:04;95487.79;;;17.68;87.75
59329;BME280;45100;46.926;7.452;2023-09-19T08:49:40;95489.48;;;17.66;87.11
59329;BME280;45100;46.926;7.452;2023-09-19T08:52:10;95483.61;;;17.69;88.34
59329;BME280;45100;46.926;7.452;2023-09-19T08:54:28;95491.89;;;17.77;88.93
59329;BME280;45100;46.926;7.452;2023-09-19T08:56:55;95490.37;;;17.81;88.39
59329;BME280;45100;46.926;7.452;2023-09-19T08:59:26;95494.29;;;17.81;87.60
59329;BME280;45100;46.926;7.452;2023-09-19T09:01:55;95494.67;;;17.81;88.69
59329;BME280;45100;46.926;7.452;2023-09-19T09:04:27;95493.08;;;17.82;88.76
59329;BME280;45100;46.926;7.452;2023-09-19T09:06:56;95494.06;;;17.82;87.56
59329;BME280;45100;46.926;7.452;2023-09-19T09:09:28;95490.74;;;17.81;87.43
59329;BME280;45100;46.926;7.452;2023-09-19T09:11:58;95493.84;;;17.81;87.46
59329;BME280;45100;46.926;7.452;2023-09-19T09:14:28;95490.36;;;17.82;86.67
59329;BME280;45100;46.926;7.452;2023-09-19T09:17:00;95489.45;;;17.86;87.06
59329;BME280;45100;46.926;7.452;2023-09-19T09:19:29;95494.16;;;17.91;86.31
59329;BME280;45100;46.926;7.452;2023-09-19T09:22:08;95490.02;;;17.99;85.22
59329;BME280;45100;46.926;7.452;2023-09-19T09:24:31;95490.20;;;18.06;85.90
59329;BME280;45100;46.926;7.452;2023-09-19T09:29:43;95488.95;;;18.23;84.16
59329;BME280;45100;46.926;7.452;2023-09-19T09:32:27;95491.38;;;18.30;82.07
59329;BME280;45100;46.926;7.452;2023-09-19T09:34:37;95492.55;;;18.37;82.57
59329;BME280;45100;46.926;7.452;2023-09-19T09:37:12;95491.41;;;18.50;81.86
59329;BME280;45100;46.926;7.452;2023-09-19T09:39:38;95488.20;;;18.60;80.06
59329;BME280;45100;46.926;7.452;2023-09-19T09:42:28;95491.08;;;18.69;81.53
59329;BME280;45100;46.926;7.452;2023-09-19T09:44:40;95490.70;;;18.73;79.68
59329;BME280;45100;46.926;7.452;2023-09-19T09:47:47;95484.20;;;18.69;79.66
59329;BME280;45100;46.926;7.452;2023-09-19T09:49:49;95483.94;;;18.66;79.88
59329;BME280;45100;46.926;7.452;2023-09-19T09:52:18;95482.25;;;18.62;79.20
59329;BME280;45100;46.926;7.452;2023-09-19T09:55:00;95476.73;;;18.59;78.63
59329;BME280;45100;46.926;7.452;2023-09-19T09:57:18;95476.97;;;18.54;79.01
59329;BME280;45100;46.926;7.452;2023-09-19T09:59:58;95468.08;;;18.51;78.44
59329;BME280;45100;46.926;7.452;2023-09-19T10:02:18;95472.64;;;18.55;79.89
59329;BME280;45100;46.926;7.452;2023-09-19T10:04:54;95471.09;;;18.70;79.73
59329;BME280;45100;46.926;7.452;2023-09-19T10:09:48;95467.23;;;19.07;77.55
59329;BME280;45100;46.926;7.452;2023-09-19T10:12:19;95464.08;;;19.23;78.84
59329;BME280;45100;46.926;7.452;2023-09-19T10:14:48;95470.58;;;19.33;74.81
59329;BME280;45100;46.926;7.452;2023-09-19T10:17:21;95469.09;;;19.33;74.08
59329;BME280;45100;46.926;7.452;2023-09-19T10:19:55;95468.47;;;19.32;74.10
59329;BME280;45100;46.926;7.452;2023-09-19T10:24:57;95464.21;;;19.45;73.67
59329;BME280;45100;46.926;7.452;2023-09-19T10:27:27;95467.78;;;19.51;73.40
59329;BME280;45100;46.926;7.452;2023-09-19T10:30:00;95463.62;;;19.54;72.25
59329;BME280;45100;46.926;7.452;2023-09-19T10:32:28;95459.48;;;19.58;71.90
59329;BME280;45100;46.926;7.452;2023-09-19T10:34:58;95467.56;;;19.69;72.46
59329;BME280;45100;46.926;7.452;2023-09-19T10:37:30;95462.69;;;19.79;71.81
59329;BME280;45100;46.926;7.452;2023-09-19T10:39:58;95465.67;;;19.82;70.77
59329;BME280;45100;46.926;7.452;2023-09-19T10:45:09;95466.58;;;19.68;67.64
59329;BME280;45100;46.926;7.452;2023-09-19T10:47:34;95471.40;;;19.46;69.31
59329;BME280;45100;46.926;7.452;2023-09-19T10:50:07;95473.27;;;19.28;69.74
59329;BME280;45100;46.926;7.452;2023-09-19T10:55:16;95471.23;;;19.01;71.37
59329;BME280;45100;46.926;7.452;2023-09-19T10:57:44;95474.47;;;18.95;70.05
59329;BME280;45100;46.926;7.452;2023-09-19T11:00:24;95473.54;;;18.95;70.37
59329;BME280;45100;46.926;7.452;2023-09-19T11:02:41;95471.73;;;19.03;71.18
59329;BME280;45100;46.926;7.452;2023-09-19T11:05:11;95465.12;;;19.15;71.09
59329;BME280;45100;46.926;7.452;2023-09-19T11:07:59;95464.58;;;19.31;70.27
59329;BME280;45100;46.926;7.452;2023-09-19T11:12:49;95457.41;;;19.50;68.18
59329;BME280;45100;46.926;7.452;2023-09-19T11:17:43;95453.20;;;19.65;68.87
59329;BME280;45100;46.926;7.452;2023-09-19T11:20:23;95448.77;;;19.70;66.87
59329;BME280;45100;46.926;7.452;2023-09-19T11:25:41;95446.14;;;19.70;65.22
59329;BME280;45100;46.926;7.452;2023-09-19T11:30:27;95449.20;;;19.79;66.13
59329;BME280;45100;46.926;7.452;2023-09-19T11:33:16;95441.46;;;19.83;62.87
59329;BME280;45100;46.926;7.452;2023-09-19T11:38:00;95441.24;;;19.75;61.67
59329;BME280;45100;46.926;7.452;2023-09-19T11:40:22;95441.12;;;19.69;62.16
59329;BME280;45100;46.926;7.452;2023-09-19T11:42:54;95434.73;;;19.65;61.36
59329;BME280;45100;46.926;7.452;2023-09-19T11:47:51;95434.05;;;19.70;64.17
59329;BME280;45100;46.926;7.452;2023-09-19T11:50:23;95433.92;;;19.74;60.80
59329;BME280;45100;46.926;7.452;2023-09-19T11:52:52;95432.44;;;19.73;63.16
59329;BME280;45100;46.926;7.452;2023-09-19T11:55:22;95431.86;;;19.71;63.42
59329;BME280;45100;46.926;7.452;2023-09-19T11:57:55;95425.74;;;19.71;62.79
59329;BME280;45100;46.926;7.452;2023-09-19T12:00:23;95420.58;;;19.73;63.14
59329;BME280;45100;46.926;7.452;2023-09-19T12:02:55;95418.60;;;19.77;62.14
59329;BME280;45100;46.926;7.452;2023-09-19T12:05:31;95420.16;;;19.80;62.06
59329;BME280;45100;46.926;7.452;2023-09-19T12:07:55;95415.53;;;19.86;61.88
59329;BME280;45100;46.926;7.452;2023-09-19T12:10:25;95417.94;;;19.88;60.86
59329;BME280;45100;46.926;7.452;2023-09-19T12:13:00;95413.23;;;19.87;61.74
59329;BME280;45100;46.926;7.452;2023-09-19T12:18:28;95400.73;;;20.09;63.53
59329;BME280;45100;46.926;7.452;2023-09-19T12:20:43;95397.38;;;20.22;62.26
59329;BME280;45100;46.926;7.452;2023-09-19T12:23:14;95394.18;;;20.32;61.63
59329;BME280;45100;46.926;7.452;2023-09-19T12:25:44;95394.34;;;20.38;61.30
59329;BME280;45100;46.926;7.452;2023-09-19T12:28:13;95388.88;;;20.42;60.65
59329;BME280;45100;46.926;7.452;2023-09-19T12:30:43;95390.95;;;20.50;60.93
59329;BME280;45100;46.926;7.452;2023-09-19T12:33:15;95390.64;;;20.56;60.34
59329;BME280;45100;46.926;7.452;2023-09-19T12:35:45;95387.09;;;20.62;60.28
59329;BME280;45100;46.926;7.452;2023-09-19T12:38:27;95388.19;;;20.71;60.95
59329;BME280;45100;46.926;7.452;2023-09-19T12:43:25;95382.11;;;21.00;61.65
59329;BME280;45100;46.926;7.452;2023-09-19T12:45:55;95377.13;;;21.15;57.88
59329;BME280;45100;46.926;7.452;2023-09-19T12:48:34;95373.96;;;21.22;58.05
59329;BME280;45100;46.926;7.452;2023-09-19T12:50:59;95377.17;;;21.28;57.18
59329;BME280;45100;46.926;7.452;2023-09-19T12:53:29;95372.38;;;21.34;55.27
59329;BME280;45100;46.926;7.452;2023-09-19T12:55:58;95368.64;;;21.36;55.45
59329;BME280;45100;46.926;7.452;2023-09-19T12:58:28;95369.35;;;21.37;56.14
59329;BME280;45100;46.926;7.452;2023-09-19T13:00:58;95366.84;;;21.40;55.26
59329;BME280;45100;46.926;7.452;2023-09-19T13:03:31;95356.00;;;21.45;55.70
59329;BME280;45100;46.926;7.452;2023-09-19T13:06:02;95356.59;;;21.49;55.08
59329;BME280;45100;46.926;7.452;2023-09-19T13:08:35;95353.97;;;21.52;55.30
59329;BME280;45100;46.926;7.452;2023-09-19T13:11:13;95360.23;;;21.58;55.23
59329;BME280;45100;46.926;7.452;2023-09-19T13:13:30;95359.30;;;21.58;54.69
59329;BME280;45100;46.926;7.452;2023-09-19T13:16:02;95351.98;;;21.54;55.10
59329;BME280;45100;46.926;7.452;2023-09-19T13:18:44;95347.77;;;21.52;55.30
59329;BME280;45100;46.926;7.452;2023-09-19T13:21:11;95348.34;;;21.58;55.43
59329;BME280;45100;46.926;7.452;2023-09-19T13:23:32;95347.06;;;21.70;55.25
59329;BME280;45100;46.926;7.452;2023-09-19T13:26:05;95344.57;;;21.79;54.01
59329;BME280;45100;46.926;7.452;2023-09-19T13:28:33;95348.62;;;21.83;55.07
59329;BME280;45100;46.926;7.452;2023-09-19T13:31:03;95349.86;;;21.88;54.25
59329;BME280;45100;46.926;7.452;2023-09-19T13:33:34;95343.11;;;21.85;53.99
59329;BME280;45100;46.926;7.452;2023-09-19T13:36:06;95332.79;;;21.87;56.51
59329;BME280;45100;46.926;7.452;2023-09-19T13:38:35;95331.34;;;21.91;55.51
59329;BME280;45100;46.926;7.452;2023-09-19T13:41:05;95332.59;;;21.95;57.12
59329;BME280;45100;46.926;7.452;2023-09-19T13:43:36;95331.67;;;22.01;57.01
59329;BME280;45100;46.926;7.452;2023-09-19T13:46:06;95321.81;;;22.03;53.38
59329;BME280;45100;46.926;7.452;2023-09-19T13:48:37;95320.77;;;22.03;54.37
59329;BME280;45100;46.926;7.452;2023-09-19T13:51:07;95316.22;;;22.03;55.84
59329;BME280;45100;46.926;7.452;2023-09-19T13:53:38;95317.03;;;22.05;56.52
59329;BME280;45100;46.926;7.452;2023-09-19T13:56:09;95319.56;;;22.07;57.08
59329;BME280;45100;46.926;7.452;2023-09-19T13:58:39;95308.70;;;22.06;52.79
59329;BME280;45100;46.926;7.452;2023-09-19T14:01:13;95310.23;;;22.04;52.76
59329;BME280;45100;46.926;7.452;2023-09-19T14:03:41;95308.91;;;22.01;53.48
59329;BME280;45100;46.926;7.452;2023-09-19T14:06:12;95301.51;;;21.98;53.64
59329;BME280;45100;46.926;7.452;2023-09-19T14:08:41;95302.58;;;21.93;53.79
59329;BME280;45100;46.926;7.452;2023-09-19T14:11:12;95300.95;;;21.85;52.68
59329;BME280;45100;46.926;7.452;2023-09-19T14:13:49;95296.27;;;21.76;53.31
59329;BME280;45100;46.926;7.452;2023-09-19T14:16:12;95295.92;;;21.70;54.66
59329;BME280;45100;46.926;7.452;2023-09-19T14:18:44;95293.62;;;21.71;55.33
59329;BME280;45100;46.926;7.452;2023-09-19T14:21:15;95294.19;;;21.76;55.66
59329;BME280;45100;46.926;7.452;2023-09-19T14:26:20;95290.07;;;21.80;55.22
59329;BME280;45100;46.926;7.452;2023-09-19T14:28:49;95286.23;;;21.77;54.91
59329;BME280;45100;46.926;7.452;2023-09-19T14:31:20;95286.72;;;21.73;56.36
59329;BME280;45100;46.926;7.452;2023-09-19T14:33:55;95280.42;;;21.73;55.58
59329;BME280;45100;46.926;7.452;2023-09-19T14:36:22;95280.08;;;21.71;54.21
59329;BME280;45100;46.926;7.452;2023-09-19T14:38:55;95276.41;;;21.67;54.36